Flight Track Log - Related Links

Times and Time Zones

All times are in EDT time to prevent confusion due to time zone crossing. See the ASQ6041 flight status page for this flight to view local times or setup timezone preferences in your user account.

Time Position Orientation Groundspeed Altitude Reporting Facility
EDT Latitude Longitude Course Direction KTS MPH feet Rate Location/Type
Fri 02:10:43 PM 40.8117 -96.7569 251° West 168 193 1,900  Level Minneapolis Center
Fri 02:11:07 PM 40.7908 -96.7619 190° South 191 220 2,900 1,902 Climbing Minneapolis Center
Fri 02:11:24 PM 40.7903 -96.7831 268° West 190 219 3,200 1,747 Climbing Minneapolis Center
Fri 02:12:26 PM 40.7600 -96.8603 243° Southwest 225 259 5,200 2,229 Climbing Minneapolis Center
Fri 02:13:09 PM 40.7378 -96.9239 245° Southwest 279 321 7,100 2,613 Climbing Minneapolis Center
Fri 02:13:28 PM 40.7467 -96.9625 287° West 270 311 7,900 2,370 Climbing Minneapolis Center
Fri 02:14:00 PM 40.7742 -97.5839 252° West  Level Estimated
Fri 02:14:30 PM 40.7375 -97.0675 263° West 284 327 10,300  Level Minneapolis Center
Fri 02:15:00 PM 40.7608 -97.7212 255° West  Level Estimated
Fri 02:15:33 PM 40.7278 -97.1778 263° West 297 342 12,100  Level Minneapolis Center
Fri 02:16:00 PM 40.7263 -97.8518 251° West  Level FlightAware Approximate
Fri 02:16:35 PM 40.7303 -97.3028 272° West 336 387 13,200  Level Minneapolis Center
Fri 02:17:37 PM 40.7350 -97.4583 272° West 356 410 14,500 1,333 Climbing Minneapolis Center
Fri 02:18:41 PM 40.7389 -97.5950 272° West 369 425 16,000 1,476 Climbing Minneapolis Center
Fri 02:19:43 PM 40.7422 -97.7325 272° West 373 429 17,600 1,258 Climbing Minneapolis Center
Fri 02:20:45 PM 40.7453 -97.8672 272° West 370 426 18,600 1,113 Climbing Minneapolis Center
Fri 02:21:47 PM 40.7492 -98.0056 272° West 374 430 19,900 1,403 Climbing Minneapolis Center
Fri 02:22:49 PM 40.7539 -98.1750 272° West 381 438 21,500 1,452 Climbing Minneapolis Center
Fri 02:23:51 PM 40.7564 -98.3164 271° West 385 443 22,900 1,452 Climbing Minneapolis Center
Fri 02:24:53 PM 40.7597 -98.4544 272° West 379 436 24,500 1,358 Climbing Minneapolis Center
Fri 02:26:08 PM 40.7617 -98.5886 271° West 373 429 26,000 1,358 Climbing Minneapolis Center
Fri 02:27:10 PM 40.7650 -98.7469 272° West 365 420 27,600 1,500 Climbing Minneapolis Center
Fri 02:28:12 PM 40.7672 -98.8794 271° West 361 415 29,100 1,452 Climbing Minneapolis Center
Fri 02:29:14 PM 40.7694 -99.0094 271° West 358 412 30,600 1,403 Climbing Minneapolis Center
Fri 02:30:16 PM 40.7664 -99.1644 269° West 345 397 32,000 677 Climbing Minneapolis Center
Fri 02:31:18 PM 40.7614 -99.2992 267° West 358 412 32,000  Level Minneapolis Center
Fri 02:32:21 PM 40.7664 -99.4450 273° West 385 443 32,000  Level Minneapolis Center
Fri 02:33:23 PM 40.7694 -99.5994 272° West 410 472 32,000  Level Minneapolis Center
Fri 02:34:25 PM 40.7725 -99.7567 272° West 423 487 32,000  Level Minneapolis Center
Fri 02:35:27 PM 40.7761 -99.9125 272° West 424 488 32,000  Level Minneapolis Center
Fri 02:36:29 PM 40.7792 -100.0708 272° West 429 494 32,000  Level Minneapolis Center
Fri 02:37:31 PM 40.7828 -100.2628 271° West 433 498 32,000  Level Minneapolis Center
Fri 02:38:34 PM 40.7836 -100.4219 270° West 434 499 32,000  Level Minneapolis Center
Fri 02:39:39 PM 40.7561 -100.5919 258° West 433 498 32,000  Level Denver Center
Fri 02:40:42 PM 40.7294 -100.7483 257° West 444 511 32,000  Level Denver Center
Fri 02:41:44 PM 40.7072 -100.9053 259° West 448 516 32,000  Level Denver Center
Fri 02:42:58 PM 40.6769 -101.1067 259° West 440 506 32,000  Level Denver Center
Fri 02:44:00 PM 40.6486 -101.2833 258° West 441 507 32,000  Level Denver Center
Fri 02:45:02 PM 40.6242 -101.4356 258° West 444 511 32,000  Level Denver Center
Fri 02:46:04 PM 40.5997 -101.5889 258° West 446 513 32,000  Level Denver Center
Fri 02:47:06 PM 40.5700 -101.7678 258° West 449 517 32,000  Level Denver Center
Fri 02:48:08 PM 40.5442 -101.9214 258° West 451 519 32,000  Level Denver Center
Fri 02:49:10 PM 40.5131 -102.0997 257° West 449 517 32,000  Level Denver Center
Fri 02:50:12 PM 40.4869 -102.2536 257° West 451 519 32,000  Level Denver Center
Fri 02:51:14 PM 40.4567 -102.4333 258° West 452 520 32,000  Level Denver Center
Fri 02:52:16 PM 40.4292 -102.5869 257° West 452 520 32,000  Level Denver Center
Fri 02:53:18 PM 40.3981 -102.7669 257° West 452 520 32,000  Level Denver Center
Fri 02:54:21 PM 40.3700 -102.9269 257° West 452 520 32,000 -624 Level Denver Center
Fri 02:55:23 PM 40.3422 -103.0856 257° West 449 517 30,700 -1,790 Descending Denver Center
Fri 02:56:25 PM 40.3158 -103.2375 257° West 434 499 28,300 -2,226 Descending Denver Center
Fri 02:57:27 PM 40.2894 -103.3794 256° West 406 467 26,100 -2,226 Descending Denver Center
Fri 02:58:29 PM 40.2586 -103.5433 256° West 388 447 23,700 -2,371 Descending Denver Center
Fri 02:59:31 PM 40.2347 -103.6767 257° West 380 437 21,200 -2,371 Descending Denver Center
Fri 03:00:33 PM 40.2086 -103.8047 255° West 367 422 18,800 -1,839 Descending Denver Center
Fri 03:01:35 PM 40.2069 -103.9272 269° West 312 359 17,400 -1,645 Descending Denver Center
Fri 03:02:37 PM 40.2181 -104.0433 277° West 324 373 15,400 -1,935 Descending Denver Center
Fri 03:03:39 PM 40.2297 -104.1656 277° West 318 366 13,400 -1,355 Descending Denver Center
Fri 03:04:41 PM 40.2692 -104.2478 302° West 271 312 12,600 -629 Descending Denver Center
Fri 03:05:43 PM 40.3092 -104.3242 304° West 240 276 12,100 -288 Descending Denver Center
Fri 03:06:46 PM 40.3392 -104.3983 298° West 234 269 12,000 -48 Descending Denver Center
Fri 03:07:48 PM 40.3550 -104.4861 283° West 231 266 12,000  Level Denver Center
Fri 03:08:50 PM 40.3681 -104.5672 282° West 230 265 12,000 -194 Level Denver Center
Fri 03:09:52 PM 40.3119 -104.6158 213° Southwest 231 266 11,600 -677 Descending Denver Center
Fri 03:10:54 PM 40.2514 -104.6128 178° South 225 259 10,600 -968 Descending Denver Center
Fri 03:11:56 PM 40.1936 -104.6375 198° South 212 244 9,600 -774 Descending Denver Center
Fri 03:12:58 PM 40.1358 -104.6381 180° South 209 241 9,000 -290 Descending Denver Center
Fri 03:14:00 PM 40.0806 -104.6383 180° South 202 232 9,000 -387 Level Denver Center
Fri 03:15:02 PM 40.0183 -104.6394 181° South 206 237 8,200 -823 Descending Denver Center
Fri 03:16:04 PM 39.9653 -104.6400 180° South 195 224 7,300 -871 Descending Denver Center
Fri 03:17:06 PM 39.9225 -104.6397 180° South 147 169 6,400 -774 Descending Denver Center
Fri 03:18:08 PM 39.8800 -104.6406 181° South 150 173 5,700 -677 Descending Denver Center

Login

Don't have an account? Register now (free) for customized features, flight alerts, and more!